Tokeneke, Connecticut
Current Conditions -  °F | °C
As of 8:56 AM on Thursday 30 Oct 2014 (Local Time) from KHPN Reporting Station
Scattered Clouds Scattered Clouds  
Wind Chill:   Ceiling: Unl
Heat Index:   Visibility: 10mi
Dew Point:   Wind: 9mph
Humidity: 80%   Direction: 310°NW
Pressure: 29.98"   Gusts: NA
Location:  41.0804°N, 73.4823°W
Report Text: KHPN 301256Z 31008KT 10SM FEW050 SCT100 09/06 A2998 RMK AO2 SLP153 T00940061
Loading
Personal Weather Stations






























Interactive Weather Map
Tropical Storm Tracking
New forecast layout! Learn more

10-Day Weather Forecast

Advertisements
Track Severe Weather on mobile